Time;durP1;ratioP1;P1;durP2;ratioP2;P2;SDS_P1;SDS_P2;PMS_P1;PMS_P2;Temp;Humidity;BMP_temperature;BMP_pressure;BME280_temperature;BME280_humidity;BME280_pressure;Samples;Min_cycle;Max_cycle;Signal;HPM_P1;HPM_P2
2022/10/05 00:01:32;;;;;;;28.15;14.40;;;;;;;16.47;80.83;101753.97;5000735;28;20045;-77
2022/10/05 00:04:22;;;;;;;23.00;14.77;;;;;;;16.41;80.73;101746.22;4970762;28;20039;-80
2022/10/05 00:07:12;;;;;;;19.23;13.82;;;;;;;16.50;80.31;101756.06;4978956;28;20410;-79
2022/10/05 00:09:58;;;;;;;18.95;13.20;;;;;;;16.45;80.33;101750.75;4979699;28;20425;-80
2022/10/05 00:12:46;;;;;;;22.20;12.20;;;;;;;16.43;80.67;101750.28;4978429;28;20418;-79
2022/10/05 00:15:30;;;;;;;18.30;11.95;;;;;;;16.41;80.63;101759.97;4978741;28;20043;-79
2022/10/05 00:18:17;;;;;;;21.08;12.23;;;;;;;16.34;81.30;101762.44;4979482;28;20429;-79
2022/10/05 00:21:15;;;;;;;19.52;12.60;;;;;;;16.34;81.21;101757.75;4978333;28;20501;-80
2022/10/05 00:24:00;;;;;;;20.88;12.70;;;;;;;16.47;80.66;101761.41;4978102;28;20494;-79
2022/10/05 00:26:45;;;;;;;;;;;;;;;16.68;79.64;101770.53;4979034;28;20039;-80
2022/10/05 00:29:29;;;;;;;14.20;11.30;;;;;;;16.84;79.00;101768.03;4978119;28;19918;-80
2022/10/05 00:32:16;;;;;;;21.00;12.88;;;;;;;16.91;78.46;101769.16;4980763;28;20042;-79
2022/10/05 00:35:01;;;;;;;19.20;13.20;;;;;;;17.08;77.99;101771.78;4978950;28;20051;-80
2022/10/05 00:37:52;;;;;;;16.98;12.25;;;;;;;16.91;78.08;101771.91;4978912;28;20430;-79
2022/10/05 00:41:10;;;;;;;18.17;12.82;;;;;;;17.00;78.15;101771.84;4982234;28;20051;-79
2022/10/05 00:44:04;;;;;;;16.83;12.57;;;;;;;17.08;77.36;101768.22;4984546;28;20042;-80
2022/10/05 00:46:57;;;;;;;18.70;12.65;;;;;;;17.14;77.31;101768.84;4981030;28;20043;-79
2022/10/05 00:50:02;;;;;;;15.45;12.23;;;;;;;17.26;76.61;101763.41;4978782;28;20034;-79
2022/10/05 00:52:55;;;;;;;;;;;;;;;17.25;76.52;101759.06;4977340;28;20502;-80
2022/10/05 00:55:46;;;;;;;18.83;11.68;;;;;;;17.28;76.52;101761.13;4978362;28;19918;-79
2022/10/05 00:58:43;;;;;;;21.60;12.40;;;;;;;17.28;76.83;101763.88;4978299;28;20039;-79
2022/10/05 01:01:38;;;;;;;19.00;11.80;;;;;;;17.33;76.17;101763.66;4967364;28;20042;-79
2022/10/05 01:04:37;;;;;;;21.40;12.88;;;;;;;17.37;76.30;101764.63;4976683;28;20051;-79
2022/10/05 01:07:48;;;;;;;15.43;10.95;;;;;;;17.18;77.19;101753.28;4976287;28;20047;-79
2022/10/05 01:11:05;;;;;;;16.48;12.60;;;;;;;17.06;77.96;101762.28;4975626;28;20046;-78
2022/10/05 01:13:56;;;;;;;16.52;12.80;;;;;;;16.87;78.88;101764.63;4976855;28;20039;-80
2022/10/05 01:16:51;;;;;;;16.90;12.30;;;;;;;16.82;79.27;101762.06;4976922;28;20035;-79
2022/10/05 01:19:49;;;;;;;19.20;13.13;;;;;;;16.98;78.62;101757.63;4977252;28;20051;-79
2022/10/05 01:22:50;;;;;;;19.85;13.35;;;;;;;16.85;79.08;101759.47;4977050;28;20034;-79
2022/10/05 01:25:41;;;;;;;16.00;12.02;;;;;;;16.87;79.24;101761.88;4976627;28;20035;-79
2022/10/05 01:28:44;;;;;;;22.40;13.35;;;;;;;16.79;79.93;101749.00;4976189;28;20422;-80
2022/10/05 01:31:43;;;;;;;22.30;12.80;;;;;;;16.75;80.23;101751.63;4973504;28;20039;-78
2022/10/05 01:34:42;;;;;;;31.77;13.38;;;;;;;16.55;81.34;101750.41;4963004;28;20502;-79
2022/10/05 01:37:42;;;;;;;25.35;14.88;;;;;;;16.47;81.61;101747.66;4959271;28;20043;-80
2022/10/05 01:40:47;;;;;;;27.10;13.50;;;;;;;16.52;81.53;101753.78;4971089;28;20038;-80
2022/10/05 01:43:40;;;;;;;25.27;12.15;;;;;;;16.59;81.16;101756.88;4958171;28;20039;-79
2022/10/05 01:46:44;;;;;;;17.88;12.98;;;;;;;16.52;81.89;101758.47;4965801;28;20031;-79
2022/10/05 01:49:38;;;;;;;18.63;12.80;;;;;;;16.73;80.82;101764.88;4979589;28;20062;-78
2022/10/05 01:52:42;;;;;;;21.02;13.05;;;;;;;16.78;80.39;101756.44;4978812;28;20042;-79
2022/10/05 01:55:53;;;;;;;20.30;13.23;;;;;;;16.73;80.30;101762.13;4982289;28;20054;-80
2022/10/05 01:58:54;;;;;;;18.13;13.00;;;;;;;16.70;80.83;101757.31;4991826;28;20043;-79
2022/10/05 02:02:03;;;;;;;24.65;13.45;;;;;;;16.60;80.85;101754.94;4979727;28;20413;-79
2022/10/05 02:04:56;;;;;;;19.65;13.55;;;;;;;16.69;80.96;101761.19;4980012;28;20039;-79
2022/10/05 02:07:53;;;;;;;20.55;13.65;;;;;;;16.61;81.35;101756.50;4983157;28;20034;-79
2022/10/05 02:10:52;;;;;;;33.13;14.13;;;;;;;16.75;80.39;101761.78;4961541;29;20039;-79
2022/10/05 02:13:51;;;;;;;19.23;13.55;;;;;;;16.74;80.45;101768.41;4959213;28;20035;-79
2022/10/05 02:16:41;;;;;;;18.85;13.73;;;;;;;16.74;80.63;101769.22;4976588;28;20047;-79
2022/10/05 02:19:32;;;;;;;20.50;13.68;;;;;;;16.79;80.92;101766.28;4960108;28;20495;-78
2022/10/05 02:22:29;;;;;;;21.98;14.27;;;;;;;16.91;80.72;101768.34;4982701;28;20493;-78
2022/10/05 02:25:22;;;;;;;24.20;13.38;;;;;;;16.84;80.59;101765.28;4984841;28;20034;-79
2022/10/05 02:28:49;;;;;;;19.85;13.25;;;;;;;16.90;80.99;101756.53;4982130;28;20502;-78
2022/10/05 02:31:49;;;;;;;18.35;12.60;;;;;;;17.12;79.78;101751.88;4981475;28;20043;-79
2022/10/05 02:34:41;;;;;;;22.30;11.70;;;;;;;17.03;79.46;101744.47;4981964;28;20062;-79
2022/10/05 02:37:49;;;;;;;22.88;13.38;;;;;;;16.85;80.00;101748.50;4981122;28;20042;-79
2022/10/05 02:41:09;;;;;;;18.38;11.77;;;;;;;16.90;79.61;101745.56;4982277;28;20043;-78
2022/10/05 02:44:10;;;;;;;33.38;12.18;;;;;;;16.68;80.70;101734.84;4982699;28;20047;-79
2022/10/05 02:47:14;;;;;;;24.67;12.18;;;;;;;16.62;80.86;101739.72;4982018;28;20039;-79
2022/10/05 02:50:07;;;;;;;19.30;10.07;;;;;;;16.70;80.75;101746.31;4980946;28;20038;-78
2022/10/05 02:53:07;;;;;;;16.77;11.38;;;;;;;16.65;80.35;101741.81;4982815;28;20042;-79
2022/10/05 02:56:25;;;;;;;22.02;11.60;;;;;;;16.82;79.80;101737.34;4986481;28;20047;-79
2022/10/05 02:59:33;;;;;;;13.55;10.68;;;;;;;16.85;78.80;101732.00;4979574;28;20042;-78
2022/10/05 03:02:51;;;;;;;12.05;10.07;;;;;;;16.83;79.50;101733.47;4992559;28;20043;-79
2022/10/05 03:05:59;;;;;;;16.17;10.70;;;;;;;16.91;79.18;101736.19;4962528;29;20039;-78
2022/10/05 03:08:58;;;;;;;15.75;10.75;;;;;;;17.04;77.61;101734.31;4962682;29;20039;-79
2022/10/05 03:12:02;;;;;;;21.73;9.98;;;;;;;17.00;77.00;101734.16;4978147;28;20042;-79
2022/10/05 03:15:01;;;;;;;19.77;10.65;;;;;;;17.06;76.62;101738.34;4981895;28;20047;-78
2022/10/05 03:18:04;;;;;;;14.30;9.93;;;;;;;17.13;75.83;101739.72;4980477;28;20051;-79
2022/10/05 03:20:58;;;;;;;11.50;8.88;;;;;;;17.04;75.53;101734.31;5003626;28;20033;-77
2022/10/05 03:24:11;;;;;;;11.40;8.68;;;;;;;17.15;74.81;101735.53;4981197;28;20026;-77
2022/10/05 03:27:29;;;;;;;14.65;9.00;;;;;;;16.95;75.24;101737.13;4999282;28;20042;-77
2022/10/05 03:30:21;;;;;;;14.23;8.73;;;;;;;16.94;75.10;101741.00;5013969;28;20061;-77
2022/10/05 03:33:26;;;;;;;11.93;8.90;;;;;;;16.91;75.20;101738.94;5003109;28;20091;-77
2022/10/05 03:36:21;;;;;;;18.48;9.38;;;;;;;17.01;75.07;101735.78;4992451;28;20509;-79
2022/10/05 03:39:18;;;;;;;11.73;9.40;;;;;;;17.08;74.84;101737.97;4983513;28;20502;-79
2022/10/05 03:42:13;;;;;;;11.98;8.40;;;;;;;17.22;74.60;101751.50;4983745;28;20057;-79
2022/10/05 03:45:25;;;;;;;11.68;8.32;;;;;;;17.22;73.90;101757.00;4982467;28;20062;-79
2022/10/05 03:48:14;;;;;;;12.30;8.63;;;;;;;17.26;74.18;101760.66;4986837;28;20063;-79
2022/10/05 03:51:15;;;;;;;12.18;8.23;;;;;;;17.15;74.74;101756.69;4966544;28;20054;-79
2022/10/05 03:54:08;;;;;;;11.70;9.02;;;;;;;17.27;74.37;101765.03;4982617;28;20043;-79
2022/10/05 03:56:57;;;;;;;16.08;7.32;;;;;;;17.34;74.31;101759.78;4984945;28;20471;-79
2022/10/05 04:00:05;;;;;;;8.77;7.72;;;;;;;17.45;73.34;101759.06;4976955;28;20043;-79
2022/10/05 04:03:13;;;;;;;9.55;7.13;;;;;;;17.41;72.57;101768.31;4974703;28;20045;-78
2022/10/05 04:06:07;;;;;;;10.45;7.07;;;;;;;17.35;72.70;101773.22;4989769;28;20122;-79
2022/10/05 04:08:55;;;;;;;10.35;7.55;;;;;;;17.38;72.68;101760.72;4965417;28;20046;-78
2022/10/05 04:12:15;;;;;;;9.38;8.15;;;;;;;17.29;72.75;101765.50;4961823;28;20072;-78
2022/10/05 04:15:13;;;;;;;14.60;7.55;;;;;;;17.05;74.69;101758.72;4979173;28;20407;-79
2022/10/05 04:18:06;;;;;;;14.10;7.65;;;;;;;17.02;75.53;101762.09;4961632;28;20050;-79
2022/10/05 04:20:58;;;;;;;12.88;7.57;;;;;;;17.10;74.36;101760.44;4992477;28;20046;-79
2022/10/05 04:23:54;;;;;;;17.05;7.38;;;;;;;16.95;74.68;101756.34;4988303;28;20505;-78
2022/10/05 04:26:49;;;;;;;8.68;5.65;;;;;;;16.91;75.68;101769.16;4975122;28;20047;-79
2022/10/05 04:29:42;;;;;;;15.43;7.20;;;;;;;16.76;76.04;101761.44;4985839;28;20050;-80
2022/10/05 04:32:40;;;;;;;12.43;6.80;;;;;;;16.75;75.68;101759.06;4975145;28;20043;-79
2022/10/05 04:35:49;;;;;;;8.80;6.50;;;;;;;16.78;74.60;101761.13;4974389;28;20043;-78
2022/10/05 04:38:43;;;;;;;11.02;6.13;;;;;;;16.75;74.84;101762.59;4972728;28;20045;-79
2022/10/05 04:42:18;;;;;;;13.68;6.43;;;;;;;16.91;72.90;101760.91;4967155;28;20043;-79
2022/10/05 04:45:26;;;;;;;8.77;6.45;;;;;;;16.86;72.53;101766.59;4973671;28;20411;-79
2022/10/05 04:49:03;;;;;;;8.70;5.43;;;;;;;16.81;72.70;101761.25;4971148;28;20049;-78
2022/10/05 04:52:22;;;;;;;12.90;5.77;;;;;;;16.73;73.16;101761.31;4968211;28;20115;-79
2022/10/05 04:55:23;;;;;;;12.30;6.15;;;;;;;16.76;73.50;101761.44;4970892;28;20414;-79
2022/10/05 04:58:48;;;;;;;8.18;6.47;;;;;;;16.69;73.84;101763.94;4980855;28;20050;-80
2022/10/05 05:02:03;;;;;;;9.68;4.72;;;;;;;16.75;73.18;101764.53;4979901;28;20057;-84
2022/10/05 05:05:12;;;;;;;15.05;6.38;;;;;;;16.92;72.85;101765.25;4978539;28;20402;-80
2022/10/05 05:08:30;;;;;;;9.25;6.20;;;;;;;17.01;72.72;101774.25;4983553;28;20047;-79
2022/10/05 05:11:21;;;;;;;9.38;6.72;;;;;;;17.01;72.93;101765.22;4977937;28;20050;-79
2022/10/05 05:14:27;;;;;;;15.40;6.97;;;;;;;17.06;73.02;101774.06;4968039;28;20402;-79
2022/10/05 05:17:25;;;;;;;18.98;7.25;;;;;;;17.21;72.26;101778.16;4977325;28;20058;-79
2022/10/05 05:20:54;;;;;;;7.45;5.88;;;;;;;17.06;72.62;101779.56;4977167;28;20035;-79
2022/10/05 05:23:48;;;;;;;9.57;6.10;;;;;;;17.00;72.54;101778.13;4958078;28;20061;-79
2022/10/05 05:26:53;;;;;;;11.23;5.57;;;;;;;16.82;73.04;101784.03;4963547;28;20061;-79
2022/10/05 05:29:45;;;;;;;14.63;7.20;;;;;;;17.04;72.68;101781.81;4969986;28;20039;-77
2022/10/05 05:33:24;;;;;;;9.52;6.72;;;;;;;17.08;72.61;101790.19;4969752;28;20045;-78
2022/10/05 05:36:21;;;;;;;9.02;6.18;;;;;;;17.08;72.92;101795.69;4973398;28;20054;-78
2022/10/05 05:39:35;;;;;;;10.45;6.40;;;;;;;17.08;72.23;101801.19;4973520;28;20042;-78
2022/10/05 05:42:38;;;;;;;16.35;6.30;;;;;;;17.05;72.13;101797.19;4973828;28;20505;-78
2022/10/05 05:45:29;;;;;;;12.63;6.63;;;;;;;17.14;72.07;101808.13;4973415;28;20047;-78
2022/10/05 05:48:34;;;;;;;16.70;6.30;;;;;;;17.18;71.90;101806.31;4973095;28;20485;-78
2022/10/05 05:51:33;;;;;;;14.05;7.20;;;;;;;17.43;70.63;101810.81;4973133;28;20039;-78
2022/10/05 05:54:43;;;;;;;16.27;6.53;;;;;;;17.51;69.51;101812.72;5018501;22;20043;-80
2022/10/05 05:57:37;;;;;;;16.70;6.75;;;;;;;17.56;69.40;101811.72;4996474;28;20038;-80
2022/10/05 06:00:29;;;;;;;17.98;7.15;;;;;;;17.59;69.96;101808.31;5006706;28;20045;-79
2022/10/05 06:03:24;;;;;;;12.30;6.80;;;;;;;17.77;69.03;101807.06;5012342;28;20045;-79
2022/10/05 06:06:14;;;;;;;9.88;6.68;;;;;;;17.83;69.17;101802.91;5022422;28;20045;-77
2022/10/05 06:09:05;;;;;;;13.45;6.55;;;;;;;17.70;68.97;101806.78;5009184;28;20388;-77
2022/10/05 06:12:09;;;;;;;20.02;7.97;;;;;;;17.50;70.08;101808.34;5011623;28;20046;-79
2022/10/05 06:14:59;;;;;;;24.00;7.57;;;;;;;17.88;69.15;101824.72;5012938;28;20496;-80
2022/10/05 06:17:51;;;;;;;14.25;6.60;;;;;;;17.87;69.24;101823.16;5015203;28;20292;-77
2022/10/05 06:20:44;;;;;;;33.13;8.63;;;;;;;18.06;68.32;101830.09;5005298;28;20049;-77
2022/10/05 06:23:41;;;;;;;12.98;7.03;;;;;;;18.19;67.24;101834.47;5012121;28;20414;-76
2022/10/05 06:26:43;;;;;;;13.73;7.82;;;;;;;18.24;67.01;101839.78;4996880;28;20042;-76
2022/10/05 06:29:42;;;;;;;30.92;8.20;;;;;;;18.13;67.47;101841.38;4996425;28;20042;-79
2022/10/05 06:32:46;;;;;;;19.13;7.18;;;;;;;18.05;67.94;101845.78;5000030;28;20061;-78
2022/10/05 06:35:32;;;;;;;16.50;6.65;;;;;;;18.14;68.19;101851.22;4996085;28;20783;-79
2022/10/05 06:38:57;;;;;;;14.75;6.28;;;;;;;18.44;67.66;101843.66;5007888;28;20042;-79
2022/10/05 06:41:42;;;;;;;18.13;7.05;;;;;;;18.50;68.39;101854.09;5002395;28;20485;-75
2022/10/05 06:44:38;;;;;;;10.88;7.47;;;;;;;18.64;68.50;101842.78;5010368;28;20045;-76
2022/10/05 06:47:57;;;;;;;13.60;7.28;;;;;;;18.95;67.52;101844.97;5013540;28;20037;-78
2022/10/05 06:51:07;;;;;;;12.05;7.13;;;;;;;18.95;65.84;101843.03;5020101;28;20512;-80
2022/10/05 06:54:10;;;;;;;14.18;6.60;;;;;;;19.28;64.63;101851.19;5015588;28;20068;-79
2022/10/05 06:57:03;;;;;;;14.82;7.00;;;;;;;19.30;63.13;101846.09;5014315;28;20069;-79
2022/10/05 06:59:56;;;;;;;13.52;6.90;;;;;;;19.19;63.92;101839.47;5017964;28;20049;-78
2022/10/05 07:02:41;;;;;;;14.48;7.25;;;;;;;19.60;62.39;101850.25;5015925;28;20049;-77
2022/10/05 07:05:39;;;;;;;34.65;7.70;;;;;;;20.10;60.94;101851.69;5013352;28;20056;-77
2022/10/05 07:08:39;;;;;;;12.30;7.90;;;;;;;20.67;58.99;101858.78;5016933;28;20045;-77
2022/10/05 07:11:45;;;;;;;21.73;7.82;;;;;;;20.94;57.89;101860.63;5014381;28;20053;-79
2022/10/05 07:14:29;;;;;;;19.02;9.23;;;;;;;20.88;57.82;101864.81;5007216;28;20046;-80
2022/10/05 07:17:15;;;;;;;23.48;9.00;;;;;;;20.44;59.48;101861.31;5015389;28;20413;-79
2022/10/05 07:20:03;;;;;;;;;;;;;;;20.89;58.18;101860.91;5014320;28;20041;-77
2022/10/05 07:23:27;;;;;;;16.38;9.35;;;;;;;20.71;59.37;101863.25;5017450;28;19913;-79
2022/10/05 07:26:21;;;;;;;21.95;10.77;;;;;;;20.61;59.82;101854.66;5013668;28;20041;-78
2022/10/05 07:29:06;;;;;;;16.45;11.52;;;;;;;20.56;59.89;101866.78;5014344;28;20045;-79
2022/10/05 07:32:29;;;;;;;29.55;11.70;;;;;;;19.93;62.49;101863.03;5015183;28;20046;-79
2022/10/05 07:38:36;;;;;;;31.48;11.00;;;;;;;20.02;62.72;101877.47;5014126;28;20046;-80
2022/10/05 07:41:35;;;;;;;31.10;12.27;;;;;;;20.19;62.40;101879.97;5017897;28;20420;-81
2022/10/05 07:44:37;;;;;;;29.00;11.68;;;;;;;21.00;60.18;101881.34;5013903;28;20037;-79
2022/10/05 07:47:37;;;;;;;33.50;12.80;;;;;;;20.92;60.24;101877.63;5018393;28;20033;-79
2022/10/05 07:50:24;;;;;;;34.03;13.65;;;;;;;20.59;61.66;101885.41;5015626;28;20049;-77
2022/10/05 07:53:17;;;;;;;27.33;14.13;;;;;;;20.01;63.46;101882.19;5013574;28;20046;-79
2022/10/05 07:56:24;;;;;;;37.08;15.15;;;;;;;20.58;60.80;101880.25;5017690;28;20037;-81
2022/10/05 07:59:35;;;;;;;31.50;13.65;;;;;;;20.63;60.86;101883.53;5018493;28;20042;-80
2022/10/05 08:02:41;;;;;;;25.50;13.73;;;;;;;22.09;56.71;101883.09;5016932;28;20037;-80
2022/10/05 08:05:30;;;;;;;24.55;13.30;;;;;;;21.75;57.50;101881.13;5019873;28;20050;-79
2022/10/05 08:08:24;;;;;;;25.45;14.32;;;;;;;22.87;54.08;101883.75;5017687;28;20042;-81
2022/10/05 08:11:43;;;;;;;32.87;14.93;;;;;;;21.53;57.91;101874.34;5013703;28;20042;-79
2022/10/05 08:14:47;;;;;;;22.13;13.73;;;;;;;21.14;58.81;101884.47;5013859;28;20752;-80
2022/10/05 08:17:34;;;;;;;32.53;14.75;;;;;;;21.03;59.66;101886.16;5013716;28;20046;-79
2022/10/05 08:20:22;;;;;;;27.02;13.60;;;;;;;22.05;56.19;101884.97;5012714;28;20412;-79
2022/10/05 08:23:18;;;;;;;18.30;12.10;;;;;;;21.38;57.40;101883.47;5013485;28;20120;-79
2022/10/05 08:26:21;;;;;;;16.55;11.15;;;;;;;21.44;57.89;101873.72;5013684;28;20405;-80
2022/10/05 08:29:22;;;;;;;23.65;12.68;;;;;;;21.81;57.66;101874.16;5017154;28;20053;-77
2022/10/05 08:32:18;;;;;;;23.10;11.65;;;;;;;22.17;55.32;101887.59;5014836;28;20046;-78
2022/10/05 08:35:13;;;;;;;21.58;10.18;;;;;;;22.35;54.85;101892.69;5013307;28;20041;-79
2022/10/05 08:38:01;;;;;;;20.25;10.15;;;;;;;22.41;55.10;101893.97;5015487;28;20041;-79
2022/10/05 08:40:45;;;;;;;17.67;9.13;;;;;;;23.01;53.83;101892.31;5013438;28;20053;-79
2022/10/05 08:43:57;;;;;;;14.77;9.07;;;;;;;22.73;53.88;101889.88;5013324;28;20565;-78
2022/10/05 08:47:05;;;;;;;11.35;7.47;;;;;;;22.25;56.07;101893.28;5014650;28;20524;-78
2022/10/05 08:50:18;;;;;;;14.57;8.68;;;;;;;21.90;56.67;101885.00;5016942;28;20648;-79
2022/10/05 08:53:06;;;;;;;16.08;7.50;;;;;;;21.85;57.26;101896.38;5012715;28;20065;-78
2022/10/05 08:55:56;;;;;;;23.30;7.78;;;;;;;22.09;56.64;101896.13;5017586;28;20054;-79
2022/10/05 08:58:59;;;;;;;11.77;7.75;;;;;;;22.36;55.21;101899.81;5012692;28;20507;-78
2022/10/05 09:01:43;;;;;;;10.95;7.75;;;;;;;23.59;52.71;101915.06;5012730;28;20038;-80
2022/10/05 09:05:03;;;;;;;12.70;7.00;;;;;;;23.37;52.26;101915.88;5011875;28;20072;-78
2022/10/05 09:08:25;;;;;;;17.92;7.22;;;;;;;22.29;55.42;101917.13;5012977;28;20053;-80
2022/10/05 09:11:25;;;;;;;13.73;6.75;;;;;;;22.41;55.63;101918.94;5015645;28;20045;-79
2022/10/05 09:14:35;;;;;;;22.60;7.20;;;;;;;23.47;52.74;101920.84;5012582;28;20052;-78
2022/10/05 09:18:02;;;;;;;13.73;6.47;;;;;;;23.13;54.10;101928.19;5015372;28;20046;-80
2022/10/05 09:21:01;;;;;;;14.43;6.13;;;;;;;22.78;54.11;101917.28;5011566;28;20049;-81
2022/10/05 09:23:53;;;;;;;12.13;6.25;;;;;;;22.59;54.91;101920.09;5012450;28;20052;-78
2022/10/05 09:26:50;;;;;;;19.15;6.85;;;;;;;22.88;54.75;101927.78;5012773;28;20029;-80
2022/10/05 09:29:41;;;;;;;19.17;7.10;;;;;;;23.34;53.27;101925.78;5011928;28;20053;-80
2022/10/05 09:32:48;;;;;;;12.27;6.63;;;;;;;24.17;51.24;101923.03;5014005;28;20513;-79
2022/10/05 09:36:00;;;;;;;12.02;6.05;;;;;;;23.81;52.13;101924.53;5016603;28;20053;-80
2022/10/05 09:38:51;;;;;;;20.63;7.05;;;;;;;24.45;50.56;101925.34;5017980;28;20057;-80
2022/10/05 09:41:48;;;;;;;12.52;6.10;;;;;;;24.55;50.19;101928.22;5011685;28;20424;-78
2022/10/05 09:45:08;;;;;;;11.75;5.43;;;;;;;23.94;51.74;101927.84;5010715;28;20053;-80
2022/10/05 09:48:32;;;;;;;10.63;5.25;;;;;;;24.51;50.36;101932.16;4994406;28;20042;-80
2022/10/05 09:51:46;;;;;;;11.30;6.00;;;;;;;24.51;49.73;101924.63;4992627;28;20046;-79
2022/10/05 09:54:54;;;;;;;10.95;4.82;;;;;;;26.18;45.83;101926.69;4991665;28;20049;-80
2022/10/05 09:57:54;;;;;;;9.55;5.22;;;;;;;23.90;51.94;101925.03;4992465;28;20157;-79
2022/10/05 10:01:19;;;;;;;13.00;5.15;;;;;;;25.97;46.97;101923.81;4993313;28;20057;-83
2022/10/05 10:04:31;;;;;;;10.25;5.20;;;;;;;25.43;48.07;101925.47;4992588;28;20042;-81
2022/10/05 10:07:53;;;;;;;9.13;4.45;;;;;;;25.39;48.07;101924.66;4992128;28;20042;-79
2022/10/05 10:11:01;;;;;;;10.60;5.07;;;;;;;25.19;48.38;101919.72;4992350;28;20446;-83
2022/10/05 10:14:11;;;;;;;10.32;4.38;;;;;;;24.54;50.38;101921.06;4994333;28;20038;-84
2022/10/05 10:17:19;;;;;;;7.70;4.47;;;;;;;24.43;50.73;101916.59;5011644;28;20506;-80
2022/10/05 10:20:35;;;;;;;6.10;4.40;;;;;;;24.09;50.07;101918.53;5007189;28;20056;-78
2022/10/05 10:23:47;;;;;;;5.70;3.40;;;;;;;24.60;49.22;101911.19;5017598;28;20552;-81
2022/10/05 10:26:55;;;;;;;6.68;4.20;;;;;;;25.37;47.18;101917.88;5013216;28;20041;-82
2022/10/05 10:29:58;;;;;;;9.80;4.68;;;;;;;25.64;46.05;101912.91;5007265;28;20061;-82
2022/10/05 10:32:55;;;;;;;8.65;4.63;;;;;;;25.95;45.71;101918.66;5011796;28;20048;-80
2022/10/05 10:35:54;;;;;;;8.18;5.10;;;;;;;27.50;42.05;101927.75;5016185;28;20409;-80
2022/10/05 10:38:47;;;;;;;10.02;5.82;;;;;;;25.91;45.55;101922.59;5006819;28;20042;-81
2022/10/05 10:41:56;;;;;;;10.70;5.78;;;;;;;26.66;43.20;101935.66;5016010;28;20046;-79
2022/10/05 10:44:41;;;;;;;9.82;5.35;;;;;;;25.52;46.26;101928.72;5010022;28;20528;-81
2022/10/05 10:48:11;;;;;;;16.50;5.20;;;;;;;26.94;44.51;101931.31;5020790;28;20061;-80
2022/10/05 10:51:40;;;;;;;8.55;4.97;;;;;;;26.27;44.81;101929.16;5021166;28;20037;-80
2022/10/05 10:54:53;;;;;;;9.25;6.20;;;;;;;26.02;45.15;101922.63;5018622;28;20049;-79
2022/10/05 10:57:53;;;;;;;10.07;5.70;;;;;;;26.31;45.41;101927.19;5022507;28;20519;-79
2022/10/05 11:00:56;;;;;;;11.35;5.55;;;;;;;26.31;44.69;101925.19;5019722;28;20045;-81
2022/10/05 11:04:07;;;;;;;8.70;5.80;;;;;;;28.24;40.05;101921.91;5013820;28;20034;-78
2022/10/05 11:07:16;;;;;;;14.80;6.07;;;;;;;28.79;39.30;101918.44;5009570;28;20045;-77
2022/10/05 11:10:28;;;;;;;14.90;5.38;;;;;;;29.55;38.22;101921.00;5024116;28;20049;-79
2022/10/05 11:13:54;;;;;;;10.05;5.93;;;;;;;30.12;36.01;101925.97;5009253;28;20038;-76
2022/10/05 11:16:52;;;;;;;11.48;6.30;;;;;;;30.70;34.97;101918.34;5003234;28;20034;-78
2022/10/05 11:20:10;;;;;;;10.98;7.25;;;;;;;30.87;34.14;101917.28;5000380;28;20053;-76
2022/10/05 11:23:13;;;;;;;15.25;6.60;;;;;;;33.15;30.36;101922.66;5003420;28;20050;-78
2022/10/05 11:26:27;;;;;;;12.35;9.10;;;;;;;35.84;26.31;101920.75;5000068;28;20042;-77
2022/10/05 11:29:28;;;;;;;9.40;5.38;;;;;;;32.76;29.92;101920.84;5002690;28;20057;-79
2022/10/05 11:32:49;;;;;;;15.52;7.20;;;;;;;30.55;34.11;101909.34;4998690;28;20049;-75
2022/10/05 11:35:53;;;;;;;14.73;8.32;;;;;;;29.74;36.14;101906.34;5000330;28;20069;-78
2022/10/05 11:39:05;;;;;;;14.65;6.75;;;;;;;28.97;37.81;101904.28;4999927;28;20069;-77
2022/10/05 11:42:24;;;;;;;17.42;6.63;;;;;;;27.82;39.99;101897.72;5000866;28;20049;-78
2022/10/05 11:45:15;;;;;;;12.25;6.97;;;;;;;27.22;41.75;101895.84;4998718;28;20049;-76
2022/10/05 11:48:26;;;;;;;20.67;9.50;;;;;;;25.79;44.95;101890.31;5012197;28;20042;-77
2022/10/05 11:51:23;;;;;;;18.30;8.85;;;;;;;25.03;46.84;101889.38;5015452;28;20520;-78
2022/10/05 11:54:37;;;;;;;11.25;8.07;;;;;;;24.41;49.01;101885.56;5011940;28;20041;-78
2022/10/05 11:57:37;;;;;;;17.50;8.50;;;;;;;24.03;50.75;101875.56;5018307;28;20425;-77
2022/10/05 12:00:30;;;;;;;12.50;8.38;;;;;;;23.95;50.65;101882.22;5004032;28;20053;-78
2022/10/05 12:03:45;;;;;;;25.42;8.55;;;;;;;23.92;50.89;101869.09;5016077;28;21057;-78
2022/10/05 12:06:36;;;;;;;19.67;10.38;;;;;;;24.02;50.38;101869.22;5040070;23;20496;-77
2022/10/05 12:10:12;;;;;;;13.55;8.70;;;;;;;23.84;51.57;101863.44;4963766;28;20510;-76
2022/10/05 12:13:01;;;;;;;12.95;8.75;;;;;;;23.64;52.22;101861.97;4968200;28;20045;-75
2022/10/05 12:15:57;;;;;;;13.32;8.40;;;;;;;23.46;53.06;101871.25;4972800;28;20045;-75
2022/10/05 12:18:45;;;;;;;14.65;10.02;;;;;;;23.59;51.76;101867.06;4974248;28;20043;-75
2022/10/05 12:21:30;;;;;;;19.15;9.55;;;;;;;23.63;52.65;101867.91;4982656;28;20047;-78
2022/10/05 12:24:27;;;;;;;48.75;10.77;;;;;;;23.49;52.31;101868.50;4982176;28;20053;-78
2022/10/05 12:27:21;;;;;;;18.25;9.90;;;;;;;23.62;51.91;101869.88;4981292;28;20043;-79
2022/10/05 12:30:17;;;;;;;12.77;9.52;;;;;;;23.59;52.04;101865.09;4974592;28;20116;-79
2022/10/05 12:33:05;;;;;;;14.93;9.43;;;;;;;24.57;49.26;101861.09;4972504;28;20038;-78
2022/10/05 12:36:06;;;;;;;21.65;9.60;;;;;;;24.82;49.00;101850.19;4979762;28;20050;-78
2022/10/05 12:39:05;;;;;;;14.00;9.65;;;;;;;25.72;46.32;101853.22;4961396;29;20065;-78
2022/10/05 12:42:03;;;;;;;15.88;9.02;;;;;;;25.72;46.59;101847.66;4959927;29;20050;-79
2022/10/05 12:45:19;;;;;;;14.20;8.75;;;;;;;25.85;46.09;101858.06;4958946;29;20050;-79
2022/10/05 12:48:46;;;;;;;11.60;8.40;;;;;;;25.19;47.31;101856.50;4962813;28;20043;-80
2022/10/05 12:51:33;;;;;;;19.88;11.93;;;;;;;26.44;44.20;101857.88;4962682;29;20346;-79
2022/10/05 12:54:32;;;;;;;37.53;23.75;;;;;;;26.17;45.19;101847.03;4981704;28;20394;-79
2022/10/05 12:57:35;;;;;;;17.63;13.10;;;;;;;24.87;48.06;101844.28;4984975;28;20058;-78
2022/10/05 13:00:20;;;;;;;18.67;12.23;;;;;;;25.60;46.62;101843.22;4982609;28;20042;-79
2022/10/05 13:03:19;;;;;;;16.67;11.57;;;;;;;26.45;45.10;101845.53;4986156;28;20043;-79
2022/10/05 13:06:07;;;;;;;12.93;9.27;;;;;;;25.75;45.30;101841.31;4981433;28;20039;-79
2022/10/05 13:09:07;;;;;;;13.13;9.15;;;;;;;24.53;48.38;101841.56;4981527;28;20043;-79
2022/10/05 13:11:56;;;;;;;13.95;9.35;;;;;;;24.58;47.60;101843.25;4985166;28;20093;-78
2022/10/05 13:15:20;;;;;;;15.43;9.45;;;;;;;25.09;47.03;101832.94;4982199;28;20054;-79
2022/10/05 13:18:16;;;;;;;16.42;9.07;;;;;;;26.06;44.52;101840.59;4981547;28;20528;-79
2022/10/05 13:21:08;;;;;;;13.23;8.80;;;;;;;26.58;43.39;101843.94;4981498;28;20046;-79
2022/10/05 13:24:18;;;;;;;11.85;8.43;;;;;;;24.31;48.50;101825.88;4981455;28;20053;-78
2022/10/05 13:27:20;;;;;;;12.38;9.35;;;;;;;26.21;44.09;101836.66;4982478;28;20039;-78
2022/10/05 13:30:14;;;;;;;14.95;9.55;;;;;;;26.51;44.02;101839.16;4979838;28;20053;-79
2022/10/05 13:33:13;;;;;;;16.45;9.13;;;;;;;25.83;45.27;101842.94;4978519;28;20049;-78
2022/10/05 13:36:11;;;;;;;13.15;8.50;;;;;;;25.62;45.60;101842.81;4977664;28;20506;-78
2022/10/05 13:38:59;;;;;;;23.08;10.77;;;;;;;26.18;45.24;101847.81;4983546;28;20050;-79
2022/10/05 13:42:05;;;;;;;14.95;9.30;;;;;;;26.78;43.00;101845.13;4980042;28;20457;-79
2022/10/05 13:44:59;;;;;;;21.20;9.50;;;;;;;26.13;44.64;101842.63;4985072;28;20038;-79
2022/10/05 13:47:57;;;;;;;16.75;8.77;;;;;;;28.19;39.94;101838.41;4978845;28;20097;-79
2022/10/05 13:50:54;;;;;;;14.85;10.05;;;;;;;28.11;39.79;101838.84;4986488;28;20046;-78
2022/10/05 13:53:48;;;;;;;14.95;9.63;;;;;;;28.76;38.34;101836.03;4981149;28;20047;-78
2022/10/05 13:56:38;;;;;;;17.05;10.90;;;;;;;29.04;37.60;101831.41;4980965;28;20046;-78